Time;durP1;ratioP1;P1;durP2;ratioP2;P2;SDS_P1;SDS_P2;PMS_P1;PMS_P2;Temp;Humidity;BMP_temperature;BMP_pressure;BME280_temperature;BME280_humidity;BME280_pressure;Samples;Min_cycle;Max_cycle;Signal;HPM_P1;HPM_P2
2024/04/01 00:02:11;;;;;;;;;;;;;;;14.32;52.14;95881.38;5084460;28;19924;-90
2024/04/01 00:04:59;;;;;;;;;;;;;;;14.32;52.05;95873.19;5089217;28;20456;-91
2024/04/01 00:07:48;;;;;;;;;;;;;;;14.33;51.79;95875.56;5072546;28;19924;-91
2024/04/01 00:10:36;;;;;;;;;;;;;;;14.36;51.97;95874.00;5068832;28;19924;-89
2024/04/01 00:13:22;;;;;;;;;;;;;;;14.38;52.01;95861.53;5073741;28;19928;-89
2024/04/01 00:16:09;;;;;;;;;;;;;;;14.37;52.33;95859.16;5083674;28;19932;-90
2024/04/01 00:18:57;;;;;;;;;;;;;;;14.35;52.23;95840.44;5086368;28;20011;-89
2024/04/01 00:21:45;;;;;;;;;;;;;;;14.33;52.11;95840.06;5088626;28;19985;-89
2024/04/01 00:24:31;;;;;;;;;;;;;;;14.33;51.79;95825.63;5069993;28;19963;-89
2024/04/01 00:27:18;;;;;;;;;;;;;;;14.31;51.74;95823.25;5081156;28;19924;-90
2024/04/01 00:30:06;;;;;;;;;;;;;;;14.34;51.74;95817.03;5089669;28;19924;-91
2024/04/01 00:32:52;;;;;;;;;;;;;;;14.30;51.65;95812.72;5060249;28;20493;-90
2024/04/01 00:35:41;;;;;;;;;;;;;;;14.33;52.32;95820.16;5086286;28;19924;-90
2024/04/01 00:38:27;;;;;;;;;;;;;;;14.31;52.15;95822.47;5070711;28;19978;-94
2024/04/01 00:41:15;;;;;;;;;;;;;;;14.31;51.50;95830.66;5072370;28;19947;-94
2024/04/01 00:44:02;;;;;;;;;;;;;;;14.25;52.18;95813.88;5076675;28;19969;-93
2024/04/01 00:46:49;;;;;;;;;;;;;;;14.23;52.48;95816.22;5079558;28;19924;-94
2024/04/01 00:49:35;;;;;;;;;;;;;;;14.24;51.71;95815.03;5076946;28;19956;-85
2024/04/01 00:52:24;;;;;;;;;;;;;;;14.23;52.45;95818.16;5086760;28;19931;-84
2024/04/01 00:55:10;;;;;;;;;;;;;;;14.21;52.35;95812.28;5092940;28;20032;-85
2024/04/01 00:57:58;;;;;;;;;;;;;;;14.18;52.37;95813.06;5090837;28;19923;-84
2024/04/01 01:00:44;;;;;;;;;;;;;;;14.20;50.96;95806.06;5091391;28;19970;-85
2024/04/01 01:03:32;;;;;;;;;;;;;;;14.22;50.41;95794.72;5091388;28;20387;-85
2024/04/01 01:06:18;;;;;;;;;;;;;;;14.26;49.62;95801.00;5088530;28;19940;-85
2024/04/01 01:09:07;;;;;;;;;;;;;;;14.28;49.50;95788.53;5086930;28;19928;-85
2024/04/01 01:11:53;;;;;;;;;;;;;;;14.31;49.32;95784.22;5074959;28;19954;-85
2024/04/01 01:14:40;;;;;;;;;;;;;;;14.32;49.46;95778.38;5074694;28;19932;-84
2024/04/01 01:17:26;;;;;;;;;;;;;;;14.27;50.34;95778.75;5087818;28;20347;-84
2024/04/01 01:20:15;;;;;;;;;;;;;;;14.26;48.79;95771.72;5084987;28;19931;-85
2024/04/01 01:23:06;;;;;;;;;;;;;;;14.19;49.01;95774.44;5073321;28;20367;-84
2024/04/01 01:25:54;;;;;;;;;;;;;;;14.28;49.31;95774.09;5077474;28;19931;-85
2024/04/01 01:28:41;;;;;;;;;;;;;;;14.30;48.78;95760.81;5076385;28;19932;-84
2024/04/01 01:31:28;;;;;;;;;;;;;;;14.27;48.94;95748.69;5056148;28;20023;-83
2024/04/01 01:34:15;;;;;;;;;;;;;;;14.29;48.72;95737.41;5072200;28;19928;-84
2024/04/01 01:37:02;;;;;;;;;;;;;;;14.27;48.58;95726.84;5075263;28;19981;-84
2024/04/01 01:39:51;;;;;;;;;;;;;;;14.28;47.93;95711.28;5078931;28;19931;-84
2024/04/01 01:42:39;;;;;;;;;;;;;;;14.24;47.67;95703.06;5062301;28;19932;-84
2024/04/01 01:45:25;;;;;;;;;;;;;;;14.17;47.51;95689.41;5071529;28;20581;-83
2024/04/01 01:48:12;;;;;;;;;;;;;;;14.15;47.11;95667.16;5074943;28;19928;-94
2024/04/01 01:50:58;;;;;;;;;;;;;;;14.13;46.44;95644.94;5058242;28;20009;-95
2024/04/01 01:53:45;;;;;;;;;;;;;;;14.13;46.50;95618.41;5072113;28;19932;-92
2024/04/01 01:56:33;;;;;;;;;;;;;;;14.15;45.65;95632.44;5065939;28;19971;-95
2024/04/01 01:59:21;;;;;;;;;;;;;;;14.15;46.73;95643.38;5072589;28;19928;-85
2024/04/01 02:02:07;;;;;;;;;;;;;;;14.19;47.10;95645.31;5079959;28;19932;-84
2024/04/01 02:04:56;;;;;;;;;;;;;;;14.16;47.77;95619.56;5091638;28;19935;-84
2024/04/01 02:07:42;;;;;;;;;;;;;;;14.12;48.18;95614.13;5096969;28;19946;-92
2024/04/01 02:10:30;;;;;;;;;;;;;;;14.09;47.94;95603.19;5085802;27;19951;-91
2024/04/01 02:13:18;;;;;;;;;;;;;;;14.09;47.59;95603.97;5082950;28;19951;-90
2024/04/01 02:16:07;;;;;;;;;;;;;;;14.10;48.15;95612.94;5086856;28;19923;-92
2024/04/01 02:18:53;;;;;;;;;;;;;;;14.11;47.66;95595.38;5079845;28;20014;-92
2024/04/01 02:21:44;;;;;;;;;;;;;;;14.00;48.45;95584.47;5071955;28;19925;-93
2024/04/01 02:24:31;;;;;;;;;;;;;;;13.98;48.26;95603.19;5090106;28;19939;-93
2024/04/01 02:27:19;;;;;;;;;;;;;;;13.97;48.18;95607.09;5073167;28;19930;-93
2024/04/01 02:30:07;;;;;;;;;;;;;;;14.00;48.09;95600.84;5072268;28;19924;-93
2024/04/01 02:32:55;;;;;;;;;;;;;;;13.95;48.67;95605.91;5085253;28;19927;-93
2024/04/01 02:35:41;;;;;;;;;;;;;;;13.96;49.04;95612.94;5090613;28;19936;-91
2024/04/01 02:38:28;;;;;;;;;;;;;;;14.00;48.27;95617.22;5071455;28;20237;-94
2024/04/01 02:41:15;;;;;;;;;;;;;;;14.00;48.65;95619.94;5091420;28;19925;-92
2024/04/01 02:44:02;;;;;;;;;;;;;;;13.98;47.56;95613.34;5089686;28;19928;-93
2024/04/01 02:46:57;;;;;;;;;;;;;;;13.97;47.80;95611.78;5073076;28;19928;-93
2024/04/01 02:49:44;;;;;;;;;;;;;;;14.00;47.94;95613.72;5078695;28;19977;-92
2024/04/01 02:52:31;;;;;;;;;;;;;;;14.02;47.87;95603.97;5078719;28;19924;-92
2024/04/01 02:55:19;;;;;;;;;;;;;;;14.00;48.39;95625.41;5079341;28;19924;-90
2024/04/01 02:58:05;;;;;;;;;;;;;;;13.97;48.08;95607.09;5075007;28;19935;-91
2024/04/01 03:00:52;;;;;;;;;;;;;;;13.89;48.39;95580.94;5084871;28;20007;-90
2024/04/01 03:03:40;;;;;;;;;;;;;;;13.92;48.17;95561.06;5083350;28;20394;-93
2024/04/01 03:06:28;;;;;;;;;;;;;;;13.83;48.24;95541.56;5077531;28;20247;-92
2024/04/01 03:09:15;;;;;;;;;;;;;;;13.75;48.57;95540.81;5078637;28;19977;-90
2024/04/01 03:12:02;;;;;;;;;;;;;;;13.79;48.38;95513.50;5069946;28;20736;-89
2024/04/01 03:14:48;;;;;;;;;;;;;;;13.81;48.57;95509.22;5081808;28;19925;-90
2024/04/01 03:17:35;;;;;;;;;;;;;;;13.77;48.45;95522.06;5084080;28;19950;-88
2024/04/01 03:20:23;;;;;;;;;;;;;;;13.77;48.31;95516.63;5048466;28;19935;-86
2024/04/01 03:23:10;;;;;;;;;;;;;;;13.76;48.53;95509.63;5076778;28;19925;-86
2024/04/01 03:25:57;;;;;;;;;;;;;;;13.80;48.87;95526.00;5085149;28;19924;-86
2024/04/01 03:28:45;;;;;;;;;;;;;;;13.80;48.80;95556.00;5074825;28;20122;-86
2024/04/01 03:31:31;;;;;;;;;;;;;;;13.86;49.13;95565.38;5056258;28;19932;-85
2024/04/01 03:34:19;;;;;;;;;;;;;;;13.82;48.90;95546.25;5064736;28;20282;-86
2024/04/01 03:37:08;;;;;;;;;;;;;;;13.83;49.14;95544.31;5059594;28;20493;-85
2024/04/01 03:39:56;;;;;;;;;;;;;;;13.75;49.27;95556.41;5074168;28;19928;-86
2024/04/01 03:42:43;;;;;;;;;;;;;;;13.76;49.08;95539.63;5064052;28;19995;-86
2024/04/01 03:45:30;;;;;;;;;;;;;;;13.75;49.32;95554.44;5057727;28;19924;-87
2024/04/01 03:48:16;;;;;;;;;;;;;;;13.67;49.73;95550.13;5053404;28;19928;-87
2024/04/01 03:51:04;;;;;;;;;;;;;;;13.68;49.56;95542.72;5044370;28;19974;-87
2024/04/01 03:53:51;;;;;;;;;;;;;;;13.66;49.97;95539.63;5072342;28;19924;-86
2024/04/01 03:56:41;;;;;;;;;;;;;;;13.69;49.90;95530.63;5065045;28;19939;-85
2024/04/01 03:59:27;;;;;;;;;;;;;;;13.65;49.94;95530.66;5057999;28;19928;-86
2024/04/01 04:02:15;;;;;;;;;;;;;;;13.63;49.82;95527.53;5058972;28;19924;-86
2024/04/01 04:05:02;;;;;;;;;;;;;;;13.63;49.90;95530.25;5061890;28;20414;-86
2024/04/01 04:07:49;;;;;;;;;;;;;;;13.61;50.15;95522.47;5057937;28;19924;-86
2024/04/01 04:10:37;;;;;;;;;;;;;;;13.68;50.10;95523.63;5061408;28;19924;-86
2024/04/01 04:13:24;;;;;;;;;;;;;;;13.81;50.19;95522.88;5059039;28;20317;-86
2024/04/01 04:16:11;;;;;;;;;;;;;;;13.89;49.85;95523.63;5069002;28;19928;-87
2024/04/01 04:18:59;;;;;;;;;;;;;;;13.96;49.65;95528.34;5075180;28;19924;-92
2024/04/01 04:21:45;;;;;;;;;;;;;;;14.02;49.75;95535.72;5075297;28;20439;-93
2024/04/01 04:24:36;;;;;;;;;;;;;;;14.09;49.23;95541.16;5079786;28;19934;-93
2024/04/01 04:27:23;;;;;;;;;;;;;;;14.08;49.07;95530.66;5073821;28;19928;-93
2024/04/01 04:30:12;;;;;;;;;;;;;;;14.16;48.94;95529.47;5073113;28;19924;-90
2024/04/01 04:32:58;;;;;;;;;;;;;;;14.21;49.99;95539.22;5080290;28;19928;-89
2024/04/01 04:35:46;;;;;;;;;;;;;;;14.23;49.73;95536.88;5082840;28;19928;-90
2024/04/01 04:38:33;;;;;;;;;;;;;;;14.27;48.68;95523.97;5077438;28;20018;-91
2024/04/01 04:41:22;;;;;;;;;;;;;;;14.18;48.49;95508.00;5079722;28;19924;-90
2024/04/01 04:44:09;;;;;;;;;;;;;;;14.28;48.01;95500.97;5081067;28;19931;-90
2024/04/01 04:46:58;;;;;;;;;;;;;;;14.28;47.84;95493.56;5090330;28;19924;-90
2024/04/01 04:49:45;;;;;;;;;;;;;;;14.32;47.33;95496.25;5078926;28;19924;-90
2024/04/01 04:52:33;;;;;;;;;;;;;;;14.38;47.79;95505.63;5079366;28;19932;-90
2024/04/01 04:55:22;;;;;;;;;;;;;;;14.33;48.37;95514.25;5079799;28;20497;-90
2024/04/01 04:58:10;;;;;;;;;;;;;;;14.35;48.27;95512.66;5073888;28;19931;-90
2024/04/01 05:01:05;;;;;;;;;;;;;;;14.36;47.91;95502.50;5077657;28;19931;-90
2024/04/01 05:03:51;;;;;;;;;;;;;;;14.37;47.72;95520.44;5082082;28;19924;-89
2024/04/01 05:06:39;;;;;;;;;;;;;;;14.38;47.01;95500.97;5086435;28;19932;-95
2024/04/01 05:09:25;;;;;;;;;;;;;;;14.38;47.08;95494.69;5092109;28;19931;-96
2024/04/01 05:12:13;;;;;;;;;;;;;;;14.31;47.89;95487.28;5075722;28;20773;-90
2024/04/01 05:14:59;;;;;;;;;;;;;;;14.37;47.17;95477.53;5077410;28;20008;-91
2024/04/01 05:17:47;;;;;;;;;;;;;;;14.34;48.20;95474.81;5095540;28;19970;-92
2024/04/01 05:20:33;;;;;;;;;;;;;;;14.24;48.81;95483.81;5084606;28;19952;-93
2024/04/01 05:23:21;;;;;;;;;;;;;;;14.31;47.71;95478.31;5075153;28;20274;-94
2024/04/01 05:26:08;;;;;;;;;;;;;;;14.26;47.87;95486.91;5062774;28;19931;-93
2024/04/01 05:28:59;;;;;;;;;;;;;;;14.24;47.80;95481.09;5064945;28;20010;-92
2024/04/01 05:31:47;;;;;;;;;;;;;;;14.16;47.57;95470.16;5079226;28;20023;-94
2024/04/01 05:34:38;;;;;;;;;;;;;;;14.20;48.01;95469.38;5060883;28;20020;-96
2024/04/01 05:37:25;;;;;;;;;;;;;;;14.19;47.68;95459.66;5065987;28;19924;-92
2024/04/01 05:40:12;;;;;;;;;;;;;;;14.25;47.73;95453.38;5077906;28;19943;-88
2024/04/01 05:42:58;;;;;;;;;;;;;;;14.25;48.06;95436.22;5061384;28;19924;-90
2024/04/01 05:45:45;;;;;;;;;;;;;;;14.34;47.88;95444.78;5057340;28;19972;-90
2024/04/01 05:48:32;;;;;;;;;;;;;;;14.33;47.76;95443.22;5062263;28;19959;-87
2024/04/01 05:51:20;;;;;;;;;;;;;;;14.45;47.06;95434.59;5076863;28;20446;-89
2024/04/01 05:54:08;;;;;;;;;;;;;;;14.42;46.99;95422.47;5070497;28;20012;-89
2024/04/01 05:56:55;;;;;;;;;;;;;;;14.41;46.43;95409.22;5066246;28;20045;-90
2024/04/01 05:59:44;;;;;;;;;;;;;;;14.39;46.71;95420.56;5059043;28;20617;-88
2024/04/01 06:02:30;;;;;;;;;;;;;;;14.44;46.62;95408.44;5058460;28;19932;-87
2024/04/01 06:05:18;;;;;;;;;;;;;;;14.47;46.16;95415.06;5071177;28;19924;-88
2024/04/01 06:08:06;;;;;;;;;;;;;;;14.40;46.65;95415.88;5061203;28;20486;-88
2024/04/01 06:10:54;;;;;;;;;;;;;;;14.49;46.29;95418.19;5074393;28;19942;-89
2024/04/01 06:13:40;;;;;;;;;;;;;;;14.48;46.25;95422.88;5069458;28;19939;-89
2024/04/01 06:16:31;;;;;;;;;;;;;;;14.57;46.28;95436.13;5059740;28;19928;-88
2024/04/01 06:19:17;;;;;;;;;;;;;;;14.52;46.27;95426.38;5065984;28;19928;-91
2024/04/01 06:22:05;;;;;;;;;;;;;;;14.52;46.47;95428.34;5062425;28;19924;-88
2024/04/01 06:24:52;;;;;;;;;;;;;;;14.53;46.74;95436.13;5059021;28;20631;-88
2024/04/01 06:27:40;;;;;;;;;;;;;;;14.25;46.12;95439.72;5074274;28;19977;-88
2024/04/01 06:30:26;;;;;;;;;;;;;;;14.45;46.60;95434.59;5071228;28;19925;-88
2024/04/01 06:33:13;;;;;;;;;;;;;;;14.50;46.47;95428.75;5069112;28;19932;-93
2024/04/01 06:36:00;;;;;;;;;;;;;;;14.57;46.55;95423.25;5064404;28;19924;-88
2024/04/01 06:38:50;;;;;;;;;;;;;;;14.61;46.47;95410.34;5071951;28;19931;-87
2024/04/01 06:41:38;;;;;;;;;;;;;;;14.63;46.37;95399.78;5063148;28;20003;-87
2024/04/01 06:44:25;;;;;;;;;;;;;;;14.59;46.83;95390.81;5071292;28;20306;-87
2024/04/01 06:47:12;;;;;;;;;;;;;;;14.67;46.62;95397.81;5071789;28;19924;-87
2024/04/01 06:49:59;;;;;;;;;;;;;;;14.66;46.43;95390.78;5061997;28;19932;-88
2024/04/01 06:52:45;;;;;;;;;;;;;;;14.65;46.97;95399.41;5058487;28;19924;-88
2024/04/01 06:55:33;;;;;;;;;;;;;;;14.71;47.64;95395.06;5054562;28;19931;-87
2024/04/01 06:58:20;;;;;;;;;;;;;;;14.73;46.36;95394.66;5078430;27;19947;-92
2024/04/01 07:01:08;;;;;;;;;;;;;;;14.74;46.99;95401.69;5096504;22;20348;-60
2024/04/01 07:03:55;;;;;;;;;;;;;;;14.81;46.79;95396.19;5047078;28;19928;-57
2024/04/01 07:06:41;;;;;;;;;;;;;;;14.83;48.42;95404.75;5046687;28;19929;-58
2024/04/01 07:09:28;;;;;;;;;;;;;;;14.88;48.01;95401.59;5042943;28;19933;-58
2024/04/01 07:12:16;;;;;;;;;;;;;;;14.87;48.62;95411.75;5086879;23;19924;-91
2024/04/01 07:15:04;;;;;;;;;;;;;;;14.89;47.20;95431.28;5045168;28;20019;-84
2024/04/01 07:17:51;;;;;;;;;;;;;;;14.88;46.73;95464.47;5045434;28;20370;-86
2024/04/01 07:20:37;;;;;;;;;;;;;;;14.90;45.82;95500.38;5076793;28;20390;-89
2024/04/01 07:23:25;;;;;;;;;;;;;;;14.77;45.34;95516.47;5066148;28;20272;-86
2024/04/01 07:26:11;;;;;;;;;;;;;;;14.66;45.27;95538.38;5056002;28;19924;-90
2024/04/01 07:28:59;;;;;;;;;;;;;;;14.68;45.39;95541.47;5067577;28;19932;-89
2024/04/01 07:31:46;;;;;;;;;;;;;;;14.63;45.72;95541.09;5058854;28;19925;-88
2024/04/01 07:34:34;;;;;;;;;;;;;;;14.74;46.24;95535.59;5057563;28;19924;-89
2024/04/01 07:37:20;;;;;;;;;;;;;;;14.75;45.81;95539.88;5073490;28;20609;-89
2024/04/01 07:40:08;;;;;;;;;;;;;;;14.76;45.63;95557.88;5059721;28;20330;-91
2024/04/01 07:42:54;;;;;;;;;;;;;;;14.76;45.60;95575.03;5053278;28;19924;-91
2024/04/01 07:45:41;;;;;;;;;;;;;;;14.80;45.77;95580.47;5072280;28;19935;-91
2024/04/01 07:48:29;;;;;;;;;;;;;;;14.74;45.99;95571.91;5073639;28;19931;-91
2024/04/01 07:51:16;;;;;;;;;;;;;;;14.91;46.85;95589.41;5057851;28;19932;-90
2024/04/01 07:54:02;;;;;;;;;;;;;;;15.03;46.55;95601.91;5062441;28;19931;-91
2024/04/01 07:56:49;;;;;;;;;;;;;;;15.13;46.88;95612.81;5059396;28;19924;-90
2024/04/01 07:59:35;;;;;;;;;;;;;;;15.13;46.61;95598.34;5078824;28;20555;-88
2024/04/01 08:02:22;;;;;;;;;;;;;;;15.14;46.66;95610.84;5074783;28;19932;-86
2024/04/01 08:05:10;;;;;;;;;;;;;;;15.22;46.22;95650.66;5055111;28;19930;-88
2024/04/01 08:07:57;;;;;;;;;;;;;;;15.23;46.35;95632.28;5074612;28;19924;-80
2024/04/01 08:10:44;;;;;;;;;;;;;;;15.27;45.41;95644.00;5077701;28;20463;-84
2024/04/01 08:13:31;;;;;;;;;;;;;;;15.48;44.93;95649.38;5070985;28;20518;-85
2024/04/01 08:16:18;;;;;;;;;;;;;;;15.71;45.13;95651.63;5067275;28;19924;-82
2024/04/01 08:19:05;;;;;;;;;;;;;;;15.84;44.19;95654.69;5060567;28;19936;-78
2024/04/01 08:21:52;;;;;;;;;;;;;;;15.95;44.46;95691.00;5071934;28;19924;-84
2024/04/01 08:24:39;;;;;;;;;;;;;;;15.82;44.55;95685.22;5063650;28;19955;-86
2024/04/01 08:27:26;;;;;;;;;;;;;;;15.80;45.82;95668.41;5065183;28;19925;-92
2024/04/01 08:30:13;;;;;;;;;;;;;;;15.76;46.73;95684.06;5049543;28;19929;-91
2024/04/01 08:32:59;;;;;;;;;;;;;;;15.76;47.59;95733.34;5070830;28;19964;-92
2024/04/01 08:35:47;;;;;;;;;;;;;;;15.52;48.62;95747.88;5064170;28;20279;-90
2024/04/01 08:38:34;;;;;;;;;;;;;;;15.51;49.57;95788.16;5077187;28;19924;-89
2024/04/01 08:41:22;;;;;;;;;;;;;;;15.30;51.14;95783.50;5065759;28;19924;-84
2024/04/01 08:44:11;;;;;;;;;;;;;;;15.24;52.24;95803.44;5052108;28;19924;-81
2024/04/01 08:47:02;;;;;;;;;;;;;;;15.24;52.95;95811.66;5069760;28;19924;-85
2024/04/01 08:49:50;;;;;;;;;;;;;;;15.04;53.93;95803.84;5074339;28;19931;-79
2024/04/01 08:52:39;;;;;;;;;;;;;;;14.90;54.94;95809.31;5075218;28;19971;-86
2024/04/01 08:55:28;;;;;;;;;;;;;;;14.81;55.35;95828.06;5072845;28;20264;-88
2024/04/01 08:58:16;;;;;;;;;;;;;;;14.77;55.86;95857.34;5061853;28;20303;-89
2024/04/01 09:01:02;;;;;;;;;;;;;;;14.74;56.10;95882.72;5068510;28;19967;-89
2024/04/01 09:03:49;;;;;;;;;;;;;;;14.80;56.48;95897.56;5066112;28;19924;-89
2024/04/01 09:06:36;;;;;;;;;;;;;;;14.70;56.53;95914.72;5065566;28;19932;-89
2024/04/01 09:09:23;;;;;;;;;;;;;;;14.73;56.70;95928.41;5075463;28;19928;-88
2024/04/01 09:12:10;;;;;;;;;;;;;;;14.72;56.64;95935.03;5065788;28;19946;-88
2024/04/01 09:14:57;;;;;;;;;;;;;;;14.70;56.79;95942.84;5061370;28;20011;-87
2024/04/01 09:17:45;;;;;;;;;;;;;;;14.45;57.81;95956.38;5074531;28;19924;-94
2024/04/01 09:20:33;;;;;;;;;;;;;;;14.46;57.95;95973.56;5057771;28;20513;-94
2024/04/01 09:23:19;;;;;;;;;;;;;;;14.39;58.32;95985.25;5070053;28;20281;-90
2024/04/01 09:26:08;;;;;;;;;;;;;;;14.43;58.55;96021.53;5065572;28;20015;-91
2024/04/01 09:28:55;;;;;;;;;;;;;;;14.57;58.53;96016.19;5061808;28;19931;-93
2024/04/01 09:31:45;;;;;;;;;;;;;;;14.56;59.28;95997.44;5060667;28;19924;-95
2024/04/01 09:34:31;;;;;;;;;;;;;;;14.71;59.61;95979.94;5080066;28;19963;-94
2024/04/01 09:37:19;;;;;;;;;;;;;;;14.63;60.59;95983.81;5072457;28;19924;-88
2024/04/01 09:40:06;;;;;;;;;;;;;;;14.60;60.46;95988.09;5072920;28;19924;-93
2024/04/01 09:42:57;;;;;;;;;;;;;;;14.71;60.73;95993.59;5069367;28;19932;-94
2024/04/01 09:45:45;;;;;;;;;;;;;;;14.75;60.70;95986.19;5073553;28;19985;-87
2024/04/01 09:48:32;;;;;;;;;;;;;;;14.83;59.69;95993.25;5058854;28;19924;-88
2024/04/01 09:51:19;;;;;;;;;;;;;;;14.88;59.23;96003.03;5052614;28;20447;-89
2024/04/01 09:54:06;;;;;;;;;;;;;;;14.92;59.16;95998.38;5077656;28;19954;-91
2024/04/01 09:57:08;;;;;;;;;;;;;;;14.98;59.17;96015.97;5066580;28;19924;-92
2024/04/01 10:00:10;;;;;;;;;;;;;;;14.89;59.30;96023.75;5075924;28;20398;-91
2024/04/01 10:03:39;;;;;;;;;;;;;;;14.67;59.75;96015.44;5071319;28;20391;-91
2024/04/01 10:06:44;;;;;;;;;;;;;;;14.59;60.10;96000.16;5034861;28;20034;-92
2024/04/01 10:09:52;;;;;;;;;;;;;;;14.49;60.84;96027.44;5062044;28;20641;-88
2024/04/01 10:12:52;;;;;;;;;;;;;;;14.38;60.54;96052.75;5057012;28;20372;-89
2024/04/01 10:15:57;;;;;;;;;;;;;;;14.33;60.66;96060.53;5067690;28;19924;-93
2024/04/01 10:18:51;;;;;;;;;;;;;;;14.28;60.39;96058.94;5062650;28;19946;-94
2024/04/01 10:21:50;;;;;;;;;;;;;;;14.34;60.08;96051.16;5081669;28;19981;-96
2024/04/01 10:25:05;;;;;;;;;;;;;;;14.33;59.99;96046.88;5068588;28;19925;-96
2024/04/01 10:28:12;;;;;;;;;;;;;;;14.14;59.72;96059.59;5067082;28;19961;-85
2024/04/01 10:31:14;;;;;;;;;;;;;;;14.06;59.47;96074.38;5065151;28;19964;-80
2024/04/01 10:34:11;;;;;;;;;;;;;;;13.89;59.86;96091.38;5059383;28;20451;-79
2024/04/01 10:37:04;;;;;;;;;;;;;;;13.80;60.30;96116.28;5056080;28;19924;-85
2024/04/01 10:39:57;;;;;;;;;;;;;;;13.85;60.07;96102.28;5074425;28;20446;-94
2024/04/01 10:42:54;;;;;;;;;;;;;;;13.98;59.75;96112.91;5070793;28;19932;-90
2024/04/01 10:45:46;;;;;;;;;;;;;;;14.07;58.53;96119.63;5062146;28;19932;-90
2024/04/01 10:48:36;;;;;;;;;;;;;;;14.15;58.69;96132.16;5066299;28;20333;-90
2024/04/01 10:51:44;;;;;;;;;;;;;;;14.12;58.02;96130.22;5073160;28;20052;-94
2024/04/01 10:54:35;;;;;;;;;;;;;;;14.20;56.94;96117.38;5072112;28;19932;-91
2024/04/01 10:57:32;;;;;;;;;;;;;;;14.20;56.51;96124.78;5051976;28;19932;-92
2024/04/01 11:00:26;;;;;;;;;;;;;;;14.16;56.40;96117.34;5067262;28;19928;-92
2024/04/01 11:03:30;;;;;;;;;;;;;;;14.25;56.15;96129.91;5063036;28;19924;-91
2024/04/01 11:06:23;;;;;;;;;;;;;;;14.30;56.20;96154.16;5072178;28;20277;-88
2024/04/01 11:09:24;;;;;;;;;;;;;;;14.27;56.36;96154.88;5074595;28;19931;-92
2024/04/01 11:12:14;;;;;;;;;;;;;;;14.30;56.56;96156.88;5072772;28;20276;-91
2024/04/01 11:15:03;;;;;;;;;;;;;;;14.20;56.38;96171.22;5072458;28;19963;-90
2024/04/01 11:17:51;;;;;;;;;;;;;;;14.19;56.33;96175.13;5057944;28;19933;-92
2024/04/01 11:20:40;;;;;;;;;;;;;;;14.06;57.19;96185.53;5059277;28;19925;-94
2024/04/01 11:23:39;;;;;;;;;;;;;;;14.12;57.62;96209.41;5077433;28;19925;-96
2024/04/01 11:26:33;;;;;;;;;;;;;;;14.03;57.62;96214.38;5064859;28;20383;-96
2024/04/01 11:29:31;;;;;;;;;;;;;;;13.96;57.84;96208.84;5058253;28;19924;-96
2024/04/01 11:32:18;;;;;;;;;;;;;;;14.10;58.20;96222.63;5050129;28;19931;-95
2024/04/01 11:35:09;;;;;;;;;;;;;;;13.93;60.28;96223.25;5058569;28;19924;-96
2024/04/01 11:41:05;;;;;;;;;;;;;;;13.87;60.50;96235.66;5022326;28;19925;-59
2024/04/01 11:43:51;;;;;;;;;;;;;;;13.91;60.71;96236.50;5018895;28;19933;-57
2024/04/01 11:46:40;;;;;;;;;;;;;;;13.79;60.46;96255.81;5011536;28;19925;-59
2024/04/01 11:49:42;;;;;;;;;;;;;;;13.86;59.50;96240.34;5087197;22;19975;-93
2024/04/01 11:52:28;;;;;;;;;;;;;;;14.05;59.03;96247.53;5128758;28;19923;-91
2024/04/01 11:55:16;;;;;;;;;;;;;;;14.04;57.92;96272.50;5120103;28;19927;-94
2024/04/01 11:58:08;;;;;;;;;;;;;;;14.07;58.21;96256.16;5142680;27;19967;-95
2024/04/01 12:00:56;;;;;;;;;;;;;;;14.11;58.21;96259.72;5121285;28;19942;-96
2024/04/01 12:03:42;;;;;;;;;;;;;;;14.19;58.09;96257.84;5104512;22;19949;-57
2024/04/01 12:06:30;;;;;;;;;;;;;;;14.30;58.27;96266.13;5084377;23;19925;-96
2024/04/01 12:09:17;;;;;;;;;;;;;;;14.34;57.28;96261.50;5085021;23;19928;-58
2024/04/01 12:12:04;;;;;;;;;;;;;;;14.12;56.32;96261.28;5091435;28;19924;-57
2024/04/01 12:14:51;;;;;;;;;;;;;;;14.15;56.48;96246.88;5062686;28;19932;-57
2024/04/01 12:17:38;;;;;;;;;;;;;;;14.13;56.19;96251.94;5078368;28;20298;-57
2024/04/01 12:23:48;;;;;;;;;;;;;;;13.98;55.75;96282.97;4986928;28;19937;-91
2024/04/01 12:26:37;;;;;;;;;;;;;;;13.84;54.13;96289.03;4991219;28;19979;-92
2024/04/01 12:29:26;;;;;;;;;;;;;;;13.72;53.92;96296.69;4967901;28;19925;-94
2024/04/01 12:32:14;;;;;;;;;;;;;;;13.64;54.02;96298.56;5097771;22;19959;-61
2024/04/01 12:35:02;;;;;;;;;;;;;;;13.54;54.55;96299.19;5078067;28;20022;-59
2024/04/01 12:37:48;;;;;;;;;;;;;;;13.56;54.54;96297.66;5091147;28;19924;-61
2024/04/01 12:40:42;;;;;;;;;;;;;;;13.54;54.71;96301.94;5088158;28;20010;-59
2024/04/01 12:43:28;;;;;;;;;;;;;;;13.50;53.88;96299.13;5086243;28;19924;-60
2024/04/01 12:46:16;;;;;;;;;;;;;;;13.49;54.40;96304.97;5087076;28;19954;-58
2024/04/01 12:49:09;;;;;;;;;;;;;;;13.60;54.36;96300.44;5087078;28;20014;-60
2024/04/01 12:51:56;;;;;;;;;;;;;;;13.71;54.13;96311.50;5083820;28;20312;-59
2024/04/01 12:54:49;;;;;;;;;;;;;;;13.72;54.18;96310.34;5084401;28;19932;-58
2024/04/01 12:57:47;;;;;;;;;;;;;;;13.71;53.72;96327.88;5081976;28;19924;-60
2024/04/01 13:00:36;;;;;;;;;;;;;;;13.77;53.88;96331.84;5085792;28;20424;-59
2024/04/01 13:03:33;;;;;;;;;;;;;;;13.64;53.62;96339.47;5082877;28;19924;-59
2024/04/01 13:06:35;;;;;;;;;;;;;;;13.48;53.81;96336.16;5077113;28;19924;-61
2024/04/01 13:09:25;;;;;;;;;;;;;;;13.55;54.48;96333.50;5095364;22;19932;-86
2024/04/01 13:12:19;;;;;;;;;;;;;;;13.58;54.57;96317.19;5075862;28;19924;-86
2024/04/01 13:15:09;;;;;;;;;;;;;;;13.58;54.93;96310.91;5056473;28;20379;-86
2024/04/01 13:17:58;;;;;;;;;;;;;;;13.58;54.82;96322.66;5060273;28;19969;-89
2024/04/01 13:20:47;;;;;;;;;;;;;;;13.60;54.62;96328.50;5059752;28;19932;-93
2024/04/01 13:23:40;;;;;;;;;;;;;;;13.65;54.25;96326.63;5067383;28;19940;-88
2024/04/01 13:26:29;;;;;;;;;;;;;;;13.67;54.43;96349.66;5063564;28;19932;-89
2024/04/01 13:29:19;;;;;;;;;;;;;;;13.72;54.21;96348.53;5057744;28;19924;-88
2024/04/01 13:32:08;;;;;;;;;;;;;;;13.66;54.39;96345.34;5063385;28;19943;-91
2024/04/01 13:34:59;;;;;;;;;;;;;;;13.66;54.38;96356.25;5069608;28;20392;-87
2024/04/01 13:37:47;;;;;;;;;;;;;;;13.60;54.27;96357.75;5071485;28;20409;-86
2024/04/01 13:40:39;;;;;;;;;;;;;;;13.59;54.16;96354.22;5060019;28;19931;-87
2024/04/01 13:43:42;;;;;;;;;;;;;;;13.57;54.17;96348.34;5073868;28;20004;-87
2024/04/01 13:46:31;;;;;;;;;;;;;;;13.58;54.46;96344.47;5074020;28;20073;-87
2024/04/01 13:49:26;;;;;;;;;;;;;;;13.68;54.46;96347.69;5073551;28;19928;-86
2024/04/01 13:52:15;;;;;;;;;;;;;;;13.79;53.31;96356.81;5057111;28;20439;-88
2024/04/01 13:55:04;;;;;;;;;;;;;;;13.80;53.37;96344.75;5074722;28;19928;-88
2024/04/01 13:57:57;;;;;;;;;;;;;;;13.84;53.03;96342.84;5060349;28;19943;-93
2024/04/01 14:00:47;;;;;;;;;;;;;;;13.85;53.02;96356.16;5060533;28;20463;-94
2024/04/01 14:03:35;;;;;;;;;;;;;;;13.88;53.11;96362.78;5066657;28;20326;-96
2024/04/01 14:06:27;;;;;;;;;;;;;;;13.82;52.89;96369.75;5063115;28;19928;-94
2024/04/01 14:09:15;;;;;;;;;;;;;;;13.89;52.86;96380.75;5057471;28;19954;-93
2024/04/01 14:12:04;;;;;;;;;;;;;;;13.78;51.75;96401.66;5058467;28;19932;-94
2024/04/01 14:14:53;;;;;;;;;;;;;;;13.72;52.14;96414.03;5092095;28;19924;-93
2024/04/01 14:17:42;;;;;;;;;;;;;;;13.68;52.22;96413.97;5069994;28;19971;-94
2024/04/01 14:20:31;;;;;;;;;;;;;;;13.47;52.41;96425.34;5063726;28;19947;-93
2024/04/01 14:23:19;;;;;;;;;;;;;;;13.43;52.25;96446.34;5065952;28;19950;-94
2024/04/01 14:26:05;;;;;;;;;;;;;;;13.42;52.51;96442.03;5075455;28;19969;-94
2024/04/01 14:28:52;;;;;;;;;;;;;;;13.28;52.91;96450.00;5081672;28;19923;-93
2024/04/01 14:31:41;;;;;;;;;;;;;;;13.08;52.72;96463.66;5073289;28;19931;-93
2024/04/01 14:34:29;;;;;;;;;;;;;;;13.04;52.95;96460.06;5074971;28;20061;-93
2024/04/01 14:37:15;;;;;;;;;;;;;;;13.03;53.04;96474.06;5094873;28;19942;-94
2024/04/01 14:40:06;;;;;;;;;;;;;;;12.93;53.20;96470.00;5073916;28;19933;-94
2024/04/01 14:42:52;;;;;;;;;;;;;;;12.93;53.62;96470.00;5066513;28;19962;-92
2024/04/01 14:45:41;;;;;;;;;;;;;;;12.95;54.07;96473.16;5079219;28;20285;-94
2024/04/01 14:48:29;;;;;;;;;;;;;;;12.95;53.94;96465.00;5063899;28;19932;-94